CES566 WSSS-ZSPD
Flight info
| Callsign | CES566 |
|---|---|
| Flight time | N/A |
| Altitude | 36000 |
| Route | VMR6A VMR M771 DUDIS/K0882F360 M771 DOSUT/N0466F380 M771 DULOP/N0469F370 Q1 CARSO DCT NOBAD DCT SANKU/N0471F380 DCT SOUSA/N0470F370 V601 DOTMI/K0861S1130 A470 LJG B221 SHZ W58 BK BK81A |
| Aircraft | A333/H-SDE3GHIJ2J3J5M1RVWXY/LB2D1 |
Departure
| Time | 2026-05-04 14:19 |
|---|---|
| Airport | Singapore Changi Airport (WSSS) |
Arrival
| Time | N/A |
|---|---|
| Airport | Shanghai Pudong International Airport (ZSPD) |
| Time | Latitude | Longitude | Altitude | Speed | Heading |
|---|---|---|---|---|---|
| 2026-05-04 13:50 | 1.34875 | 103.98196 | 35 ft | 0 kts | 37° |
| 2026-05-04 14:07 | 1.34867 | 103.98189 | 35 ft | 2 kts | 37° |
| 2026-05-04 14:07 | 1.34855 | 103.98180 | 35 ft | 2 kts | 29° |
| 2026-05-04 14:07 | 1.34840 | 103.98176 | 35 ft | 2 kts | 355° |
| 2026-05-04 14:07 | 1.34826 | 103.98179 | 36 ft | 2 kts | 328° |
| 2026-05-04 14:08 | 1.34814 | 103.98189 | 35 ft | 2 kts | 301° |
| 2026-05-04 14:08 | 1.34808 | 103.98202 | 36 ft | 2 kts | 288° |
| 2026-05-04 14:08 | 1.34803 | 103.98217 | 36 ft | 2 kts | 291° |
| 2026-05-04 14:08 | 1.34801 | 103.98223 | 35 ft | 0 kts | 292° |
| 2026-05-04 14:11 | 1.34821 | 103.98174 | 35 ft | 9 kts | 294° |
| 2026-05-04 14:11 | 1.34855 | 103.98111 | 35 ft | 11 kts | 305° |
| 2026-05-04 14:12 | 1.34903 | 103.98046 | 35 ft | 11 kts | 307° |
| 2026-05-04 14:12 | 1.34931 | 103.97976 | 35 ft | 10 kts | 258° |
| 2026-05-04 14:12 | 1.34855 | 103.97890 | 35 ft | 0 kts | 288° |
| 2026-05-04 14:16 | 1.34856 | 103.97888 | 35 ft | 1 kts | 288° |
| 2026-05-04 14:17 | 1.34907 | 103.97780 | 35 ft | 15 kts | 315° |
| 2026-05-04 14:17 | 1.35004 | 103.97791 | 35 ft | 12 kts | 23° |
| 2026-05-04 14:17 | 1.35018 | 103.97797 | 35 ft | 0 kts | 23° |
| 2026-05-04 14:18 | 1.35019 | 103.97797 | 35 ft | 1 kts | 23° |
| 2026-05-04 14:18 | 1.35759 | 103.98109 | 36 ft | 122 kts | 22° |
| 2026-05-04 14:19 | 1.37838 | 103.98967 | 666 ft | 172 kts | 20° |
| 2026-05-04 14:19 | 1.38959 | 103.99379 | 1319 ft | 176 kts | 22° |
| 2026-05-04 14:19 | 1.40086 | 103.99838 | 2000 ft | 179 kts | 24° |
| 2026-05-04 14:19 | 1.41231 | 104.00357 | 2652 ft | 184 kts | 25° |
| 2026-05-04 14:20 | 1.42400 | 104.00883 | 3035 ft | 190 kts | 24° |
| 2026-05-04 14:20 | 1.43719 | 104.01434 | 3195 ft | 215 kts | 22° |
| 2026-05-04 14:20 | 1.45161 | 104.02049 | 3557 ft | 235 kts | 23° |
| 2026-05-04 14:21 | 1.48357 | 104.03426 | 4468 ft | 265 kts | 21° |
| 2026-05-04 14:21 | 1.50180 | 104.03714 | 5127 ft | 271 kts | 354° |
| 2026-05-04 14:21 | 1.51961 | 104.03137 | 5870 ft | 274 kts | 332° |
| 2026-05-04 14:21 | 1.53658 | 104.02217 | 6007 ft | 281 kts | 334° |
| 2026-05-04 14:22 | 1.55385 | 104.01344 | 5961 ft | 274 kts | 334° |
| 2026-05-04 14:22 | 1.57108 | 104.00477 | 6015 ft | 274 kts | 334° |
| 2026-05-04 14:22 | 1.58813 | 103.99621 | 5998 ft | 273 kts | 334° |
| 2026-05-04 14:22 | 1.60511 | 103.98770 | 6004 ft | 273 kts | 334° |
| 2026-05-04 14:23 | 1.63901 | 103.97071 | 6011 ft | 274 kts | 334° |
| 2026-05-04 14:23 | 1.65609 | 103.96214 | 6008 ft | 273 kts | 334° |
| 2026-05-04 14:23 | 1.67313 | 103.95360 | 6019 ft | 274 kts | 334° |
| 2026-05-04 14:24 | 1.69060 | 103.94484 | 6560 ft | 283 kts | 334° |
| 2026-05-04 14:24 | 1.70779 | 103.93622 | 7471 ft | 279 kts | 334° |
| 2026-05-04 14:24 | 1.72531 | 103.92744 | 8119 ft | 283 kts | 334° |
| 2026-05-04 14:24 | 1.74292 | 103.91861 | 8756 ft | 288 kts | 334° |
| 2026-05-04 14:25 | 1.76165 | 103.91163 | 9371 ft | 290 kts | 352° |
| 2026-05-04 14:25 | 1.80243 | 103.90899 | 10448 ft | 302 kts | 357° |
| 2026-05-04 14:25 | 1.82370 | 103.90765 | 10650 ft | 320 kts | 357° |
| 2026-05-04 14:26 | 1.84656 | 103.90620 | 10816 ft | 339 kts | 357° |